Time;durP1;ratioP1;P1;durP2;ratioP2;P2;SDS_P1;SDS_P2;PMS_P1;PMS_P2;Temp;Humidity;BMP_temperature;BMP_pressure;BME280_temperature;BME280_humidity;BME280_pressure;Samples;Min_cycle;Max_cycle;Signal;HPM_P1;HPM_P2
2023/09/04 00:00:31;;;;;;;50.25;33.15;;;15.60;99.90;;;;;;4975045;28;20201;-70
2023/09/04 00:02:57;;;;;;;54.20;33.25;;;15.60;99.90;;;;;;4972479;28;20237;-70
2023/09/04 00:05:23;;;;;;;49.83;33.85;;;15.60;99.90;;;;;;4975383;28;20616;-70
2023/09/04 00:07:49;;;;;;;55.47;35.05;;;15.60;99.90;;;;;;4972491;28;20241;-70
2023/09/04 00:10:15;;;;;;;55.03;35.28;;;15.50;99.90;;;;;;4973316;28;20182;-70
2023/09/04 00:12:41;;;;;;;54.63;34.92;;;15.50;99.90;;;;;;4973808;28;20669;-70
2023/09/04 00:15:07;;;;;;;53.50;34.85;;;15.50;99.90;;;;;;4970543;28;20229;-70
2023/09/04 00:17:34;;;;;;;46.70;31.98;;;15.50;99.90;;;;;;4973394;28;20563;-70
2023/09/04 00:20:00;;;;;;;48.72;32.78;;;15.40;99.90;;;;;;4973070;28;20690;-69
2023/09/04 00:22:27;;;;;;;48.75;33.20;;;15.40;99.90;;;;;;4974656;28;20194;-69
2023/09/04 00:24:54;;;;;;;50.83;34.58;;;15.40;99.90;;;;;;4972121;28;20194;-69
2023/09/04 00:27:20;;;;;;;49.63;33.88;;;15.40;99.90;;;;;;4969607;28;20192;-70
2023/09/04 00:29:46;;;;;;;52.22;35.42;;;15.40;99.90;;;;;;4975712;28;20304;-69
2023/09/04 00:32:12;;;;;;;53.50;35.53;;;15.30;99.90;;;;;;4975132;28;20205;-69
2023/09/04 00:34:38;;;;;;;60.38;38.15;;;15.30;99.90;;;;;;4972131;28;20261;-70
2023/09/04 00:37:06;;;;;;;58.25;37.22;;;15.30;99.90;;;;;;4974410;28;20218;-69
2023/09/04 00:39:31;;;;;;;57.72;36.72;;;15.30;99.90;;;;;;4969834;28;20186;-68
2023/09/04 00:41:57;;;;;;;56.15;37.78;;;15.30;99.90;;;;;;4974975;28;20193;-68
2023/09/04 00:44:23;;;;;;;57.28;36.80;;;15.20;99.90;;;;;;4967528;28;20237;-69
2023/09/04 00:46:50;;;;;;;61.85;37.97;;;15.30;99.90;;;;;;4972908;28;20190;-69
2023/09/04 00:49:16;;;;;;;59.88;37.17;;;15.20;99.90;;;;;;4999535;28;20704;-68
2023/09/04 00:51:42;;;;;;;61.83;39.28;;;15.20;99.90;;;;;;4973183;28;20201;-68
2023/09/04 00:54:10;;;;;;;54.38;35.25;;;15.30;99.90;;;;;;4967356;28;20220;-69
2023/09/04 00:56:36;;;;;;;51.25;33.75;;;15.20;99.90;;;;;;4970092;28;20297;-69
2023/09/04 00:59:02;;;;;;;46.30;31.98;;;15.20;99.90;;;;;;4968613;28;20249;-70
2023/09/04 01:01:29;;;;;;;48.30;33.45;;;15.20;99.90;;;;;;5005785;28;20669;-68
2023/09/04 01:03:55;;;;;;;52.67;34.58;;;15.20;99.90;;;;;;4966935;28;20242;-69
2023/09/04 01:06:20;;;;;;;50.28;32.50;;;15.20;99.90;;;;;;4971448;28;20615;-70
2023/09/04 01:08:46;;;;;;;47.88;32.22;;;15.10;99.90;;;;;;4969062;28;20194;-69
2023/09/04 01:11:27;;;;;;;54.42;34.30;;;15.20;99.90;;;;;;4977936;28;20572;-69
2023/09/04 01:13:55;;;;;;;49.75;32.92;;;15.10;99.90;;;;;;4970393;28;20193;-69
2023/09/04 01:16:23;;;;;;;50.95;34.25;;;15.10;99.90;;;;;;4971455;28;20277;-70
2023/09/04 01:18:50;;;;;;;56.13;34.30;;;15.10;99.90;;;;;;4996799;28;20218;-69
2023/09/04 01:21:17;;;;;;;60.42;36.05;;;15.10;99.90;;;;;;4973324;28;20603;-70
2023/09/04 01:23:43;;;;;;;54.25;35.40;;;15.10;99.90;;;;;;4973798;28;20197;-70
2023/09/04 01:26:16;;;;;;;53.70;34.55;;;15.10;99.90;;;;;;4993301;28;20221;-70
2023/09/04 01:28:44;;;;;;;53.45;34.33;;;15.10;99.90;;;;;;4969523;28;20265;-69
2023/09/04 01:31:22;;;;;;;51.25;35.55;;;15.10;99.90;;;;;;4969878;28;20190;-69
2023/09/04 01:33:57;;;;;;;55.55;35.63;;;15.10;99.90;;;;;;4968366;28;20694;-70
2023/09/04 01:36:27;;;;;;;53.42;36.33;;;15.10;99.90;;;;;;4970795;28;20268;-68
2023/09/04 01:38:54;;;;;;;55.58;35.83;;;15.00;99.90;;;;;;4984946;28;20370;-70
2023/09/04 01:41:20;;;;;;;57.70;36.38;;;15.10;99.90;;;;;;4988618;28;20281;-69
2023/09/04 01:43:46;;;;;;;58.97;35.58;;;15.10;99.90;;;;;;4967611;28;20694;-70
2023/09/04 01:46:12;;;;;;;54.72;36.55;;;15.00;99.90;;;;;;4988078;28;20190;-72
2023/09/04 01:48:38;;;;;;;58.83;38.28;;;15.10;99.90;;;;;;4993152;28;20236;-69
2023/09/04 01:51:04;;;;;;;67.38;42.70;;;15.10;99.90;;;;;;4973514;28;20569;-70
2023/09/04 01:53:30;;;;;;;72.93;45.60;;;15.10;99.90;;;;;;4968001;28;20246;-70
2023/09/04 01:55:58;;;;;;;78.07;47.05;;;15.00;99.90;;;;;;4988832;28;20194;-70
2023/09/04 01:58:24;;;;;;;77.03;47.30;;;15.10;99.90;;;;;;4951349;28;20229;-70
2023/09/04 02:00:50;;;;;;;81.57;47.20;;;15.10;99.90;;;;;;5001366;28;20245;-69
2023/09/04 02:03:17;;;;;;;87.68;50.67;;;15.00;99.90;;;;;;4967608;28;20596;-69
2023/09/04 02:05:44;;;;;;;92.13;51.28;;;15.00;99.90;;;;;;4972730;28;20242;-70
2023/09/04 02:08:10;;;;;;;92.03;52.65;;;15.00;99.90;;;;;;4966231;28;20716;-71
2023/09/04 02:10:36;;;;;;;90.22;52.88;;;15.00;99.90;;;;;;4969096;28;20219;-70
2023/09/04 02:13:02;;;;;;;104.35;55.45;;;15.00;99.90;;;;;;4998975;28;20189;-70
2023/09/04 02:15:32;;;;;;;103.88;57.72;;;14.90;99.90;;;;;;4971366;28;20198;-70
2023/09/04 02:18:02;;;;;;;107.80;56.53;;;15.00;99.90;;;;;;4968740;28;20241;-71
2023/09/04 02:20:29;;;;;;;103.32;55.72;;;14.90;99.90;;;;;;4968550;28;20201;-69
2023/09/04 02:22:55;;;;;;;106.35;57.15;;;14.90;99.90;;;;;;4967872;28;20186;-70
2023/09/04 02:25:21;;;;;;;108.07;57.22;;;14.90;99.90;;;;;;4979659;28;20193;-69
2023/09/04 02:27:47;;;;;;;103.03;54.67;;;14.90;99.90;;;;;;4971146;28;20190;-70
2023/09/04 02:30:13;;;;;;;85.28;47.25;;;14.90;99.90;;;;;;4969047;28;20583;-70
2023/09/04 02:32:39;;;;;;;79.10;44.88;;;14.90;99.90;;;;;;4972055;28;20545;-69
2023/09/04 02:35:05;;;;;;;73.35;43.40;;;14.80;99.90;;;;;;4969717;28;20272;-70
2023/09/04 02:37:31;;;;;;;65.20;39.78;;;14.80;99.90;;;;;;4972036;28;20392;-69
2023/09/04 02:39:57;;;;;;;60.92;37.53;;;14.80;99.90;;;;;;4997990;28;20197;-69
2023/09/04 02:42:23;;;;;;;54.63;35.33;;;14.80;99.90;;;;;;4972001;28;20273;-70
2023/09/04 02:44:49;;;;;;;57.30;35.13;;;14.80;99.90;;;;;;4963444;28;20274;-70
2023/09/04 02:47:15;;;;;;;54.28;34.15;;;14.70;99.90;;;;;;4971550;28;20190;-70
2023/09/04 02:49:41;;;;;;;47.13;32.03;;;14.70;99.90;;;;;;4968062;28;20252;-69
2023/09/04 02:52:08;;;;;;;55.38;30.70;;;14.70;99.90;;;;;;5004137;28;20185;-69
2023/09/04 02:54:34;;;;;;;48.90;31.25;;;14.70;99.90;;;;;;4969649;28;20228;-69
2023/09/04 02:57:00;;;;;;;43.53;29.75;;;14.70;99.90;;;;;;4976731;28;20210;-69
2023/09/04 02:59:26;;;;;;;41.50;27.08;;;14.60;99.90;;;;;;4970686;28;20192;-69
2023/09/04 03:01:52;;;;;;;39.92;26.75;;;14.60;99.90;;;;;;4989768;28;20198;-68
2023/09/04 03:04:18;;;;;;;37.88;26.05;;;14.60;99.90;;;;;;4971444;28;20182;-70
2023/09/04 03:06:44;;;;;;;35.08;24.45;;;14.50;99.90;;;;;;4972431;28;20639;-69
2023/09/04 03:09:10;;;;;;;39.03;26.27;;;14.50;99.90;;;;;;4950751;28;20204;-68
2023/09/04 03:11:36;;;;;;;34.83;23.90;;;14.50;99.90;;;;;;5002589;28;20659;-69
2023/09/04 03:14:02;;;;;;;35.42;24.60;;;14.50;99.90;;;;;;4973270;28;20224;-69
2023/09/04 03:16:29;;;;;;;32.03;23.60;;;14.40;99.90;;;;;;4986906;28;20245;-69
2023/09/04 03:18:55;;;;;;;30.75;22.75;;;14.40;99.90;;;;;;4972112;28;20241;-70
2023/09/04 03:21:21;;;;;;;30.83;22.95;;;14.40;99.90;;;;;;4975463;28;20194;-69
2023/09/04 03:23:51;;;;;;;30.08;21.48;;;14.40;99.90;;;;;;4975919;28;20276;-69
2023/09/04 03:26:17;;;;;;;28.63;22.05;;;14.40;99.90;;;;;;4962620;28;20226;-69
2023/09/04 03:28:44;;;;;;;29.27;22.33;;;14.40;99.90;;;;;;5002856;28;20262;-68
2023/09/04 03:31:15;;;;;;;26.10;21.13;;;14.30;99.90;;;;;;4987658;28;20198;-69
2023/09/04 03:33:42;;;;;;;24.85;19.90;;;14.30;99.90;;;;;;4970086;28;20653;-68
2023/09/04 03:36:11;;;;;;;27.40;20.35;;;14.30;99.90;;;;;;5007344;28;20186;-69
2023/09/04 03:38:38;;;;;;;29.50;20.73;;;14.30;99.90;;;;;;5002849;28;20226;-67
2023/09/04 03:41:04;;;;;;;29.27;21.90;;;14.30;99.90;;;;;;4970017;28;20197;-70
2023/09/04 03:43:30;;;;;;;26.63;20.45;;;14.30;99.90;;;;;;4972035;28;20190;-68
2023/09/04 03:45:56;;;;;;;28.45;21.15;;;14.30;99.90;;;;;;4972014;28;20227;-68
2023/09/04 03:48:22;;;;;;;29.30;20.85;;;14.20;99.90;;;;;;4970933;28;20190;-68
2023/09/04 03:50:48;;;;;;;28.90;20.73;;;14.20;99.90;;;;;;4972792;28;21107;-69
2023/09/04 03:53:15;;;;;;;26.02;20.17;;;14.20;99.90;;;;;;4979583;28;20182;-71
2023/09/04 03:55:40;;;;;;;29.48;19.83;;;14.20;99.90;;;;;;4968943;28;20657;-69
2023/09/04 03:58:06;;;;;;;27.42;19.67;;;14.10;99.90;;;;;;4971737;28;20222;-69
2023/09/04 04:00:33;;;;;;;27.23;18.88;;;14.10;99.90;;;;;;5003456;28;20193;-69
2023/09/04 04:03:02;;;;;;;27.95;18.55;;;14.10;99.90;;;;;;4970476;28;20329;-69
2023/09/04 04:05:28;;;;;;;22.98;18.42;;;14.10;99.90;;;;;;4968916;28;21714;-69
2023/09/04 04:07:55;;;;;;;20.83;17.92;;;14.10;99.90;;;;;;4981574;28;20183;-70
2023/09/04 04:10:21;;;;;;;24.67;17.85;;;14.10;99.90;;;;;;4973213;28;20197;-69
2023/09/04 04:12:51;;;;;;;25.75;19.65;;;14.10;99.90;;;;;;4970014;28;20553;-69
2023/09/04 04:15:18;;;;;;;26.50;17.90;;;14.00;99.90;;;;;;4969699;28;20198;-69
2023/09/04 04:17:44;;;;;;;24.90;19.55;;;14.00;99.90;;;;;;4968596;28;20693;-69
2023/09/04 04:20:11;;;;;;;23.58;18.63;;;14.00;99.90;;;;;;4985603;28;20205;-68
2023/09/04 04:22:37;;;;;;;26.55;19.95;;;14.00;99.90;;;;;;4970044;28;21226;-70
2023/09/04 04:25:04;;;;;;;25.65;19.55;;;14.00;99.90;;;;;;4970800;28;20190;-69
2023/09/04 04:27:30;;;;;;;24.42;19.67;;;14.00;99.90;;;;;;4969854;28;20194;-69
2023/09/04 04:29:56;;;;;;;24.73;18.92;;;14.00;99.90;;;;;;4986172;28;20225;-70
2023/09/04 04:32:25;;;;;;;25.98;19.58;;;14.00;99.90;;;;;;5000817;28;20681;-71
2023/09/04 04:34:51;;;;;;;25.40;19.30;;;13.90;99.90;;;;;;4970542;28;20276;-72
2023/09/04 04:37:17;;;;;;;25.58;18.77;;;13.90;99.90;;;;;;4999917;28;20276;-71
2023/09/04 04:39:43;;;;;;;26.30;18.27;;;13.90;99.90;;;;;;4996252;28;20190;-71
2023/09/04 04:42:09;;;;;;;32.35;19.38;;;13.90;99.90;;;;;;4971081;28;20563;-71
2023/09/04 04:44:36;;;;;;;24.00;18.88;;;13.90;99.90;;;;;;4970464;28;20198;-71
2023/09/04 04:47:02;;;;;;;25.98;18.98;;;13.90;99.90;;;;;;5005004;28;20197;-71
2023/09/04 04:49:29;;;;;;;25.58;18.42;;;13.90;99.90;;;;;;4968204;28;20281;-70
2023/09/04 04:51:55;;;;;;;23.20;18.42;;;13.90;99.90;;;;;;4989923;28;20202;-70
2023/09/04 04:54:21;;;;;;;25.45;19.23;;;13.90;99.90;;;;;;4967250;28;20193;-70
2023/09/04 04:56:48;;;;;;;27.48;18.98;;;13.90;99.90;;;;;;5005482;28;20328;-70
2023/09/04 04:59:15;;;;;;;28.85;19.10;;;13.90;99.90;;;;;;4999723;28;20265;-71
2023/09/04 05:01:43;;;;;;;28.65;20.70;;;13.90;99.90;;;;;;4983889;28;20639;-71
2023/09/04 05:04:09;;;;;;;27.35;19.95;;;13.90;99.90;;;;;;4966685;28;20178;-69
2023/09/04 05:06:35;;;;;;;27.17;19.58;;;13.90;99.90;;;;;;4979446;28;20236;-69
2023/09/04 05:09:01;;;;;;;25.98;19.67;;;13.90;99.90;;;;;;5000906;28;20186;-71
2023/09/04 05:11:28;;;;;;;24.85;19.48;;;13.90;99.90;;;;;;4974328;28;20275;-70
2023/09/04 05:13:54;;;;;;;24.60;19.20;;;14.00;99.90;;;;;;4967990;28;20280;-70
2023/09/04 05:16:19;;;;;;;28.98;20.48;;;14.00;99.90;;;;;;4968401;28;20754;-68
2023/09/04 05:18:46;;;;;;;31.55;20.65;;;14.00;99.90;;;;;;4969464;28;20223;-68
2023/09/04 05:21:12;;;;;;;33.42;21.25;;;14.00;99.90;;;;;;4987758;28;20312;-69
2023/09/04 05:23:38;;;;;;;29.33;20.50;;;14.00;99.90;;;;;;4971113;28;20186;-68
2023/09/04 05:26:04;;;;;;;33.05;21.20;;;14.10;99.90;;;;;;4971495;28;20196;-69
2023/09/04 05:28:30;;;;;;;37.08;24.38;;;14.10;99.90;;;;;;4954839;28;20206;-69
2023/09/04 05:31:03;;;;;;;35.08;26.42;;;14.10;99.90;;;;;;4972743;28;20646;-68
2023/09/04 05:33:29;;;;;;;39.63;28.23;;;14.10;99.90;;;;;;4971538;28;20190;-68
2023/09/04 05:35:56;;;;;;;45.20;29.13;;;14.20;99.90;;;;;;5001620;28;20178;-68
2023/09/04 05:38:22;;;;;;;38.83;25.48;;;14.20;99.90;;;;;;4966456;28;20217;-68
2023/09/04 05:40:58;;;;;;;36.53;25.83;;;14.30;99.90;;;;;;4973790;28;20221;-68
2023/09/04 05:43:24;;;;;;;35.78;25.67;;;14.30;99.90;;;;;;4970810;28;20189;-68
2023/09/04 05:45:50;;;;;;;40.78;26.25;;;14.40;99.90;;;;;;4971584;28;20177;-70
2023/09/04 05:48:16;;;;;;;33.15;24.77;;;14.40;99.90;;;;;;4949129;28;20178;-68
2023/09/04 05:50:42;;;;;;;29.60;21.05;;;14.50;99.90;;;;;;4972894;28;20264;-69
2023/09/04 05:53:08;;;;;;;31.63;22.20;;;14.50;99.90;;;;;;4950897;29;20602;-67
2023/09/04 05:55:39;;;;;;;27.38;19.65;;;14.60;99.90;;;;;;4968019;28;20262;-66
2023/09/04 05:58:06;;;;;;;36.10;22.45;;;14.60;99.90;;;;;;4968682;28;20214;-67
2023/09/04 06:00:32;;;;;;;32.72;20.48;;;14.70;99.90;;;;;;4956555;28;20194;-67
2023/09/04 06:02:59;;;;;;;31.27;18.60;;;14.80;99.90;;;;;;4970259;28;20236;-68
2023/09/04 06:05:25;;;;;;;28.45;20.65;;;14.80;99.90;;;;;;4970001;28;20965;-69
2023/09/04 06:07:51;;;;;;;29.48;19.27;;;14.90;99.90;;;;;;4968268;28;20267;-69
2023/09/04 06:10:17;;;;;;;28.55;18.73;;;14.90;99.90;;;;;;4969256;28;20634;-67
2023/09/04 06:12:43;;;;;;;23.33;17.80;;;15.00;99.90;;;;;;4969658;28;20186;-67
2023/09/04 06:15:09;;;;;;;28.95;18.45;;;15.10;99.90;;;;;;4969761;28;20189;-68
2023/09/04 06:17:35;;;;;;;22.85;16.83;;;15.10;99.90;;;;;;4970250;28;20276;-66
2023/09/04 06:20:03;;;;;;;21.70;15.85;;;15.20;99.90;;;;;;5002870;28;20193;-70
2023/09/04 06:22:29;;;;;;;38.88;17.95;;;15.20;99.90;;;;;;4971897;28;20202;-69
2023/09/04 06:24:55;;;;;;;26.10;16.02;;;15.30;99.90;;;;;;4968452;28;20213;-65
2023/09/04 06:27:21;;;;;;;23.25;15.02;;;15.40;99.90;;;;;;4966091;28;20197;-74
2023/09/04 06:29:46;;;;;;;27.33;15.70;;;15.50;99.90;;;;;;4966818;28;20631;-69
2023/09/04 06:32:14;;;;;;;23.33;16.20;;;15.60;99.90;;;;;;4970031;28;20185;-65
2023/09/04 06:34:40;;;;;;;26.95;16.08;;;15.60;99.90;;;;;;4970289;28;20185;-65
2023/09/04 06:37:06;;;;;;;32.78;20.42;;;15.70;99.90;;;;;;4967859;28;20552;-66
2023/09/04 06:39:32;;;;;;;26.23;17.83;;;15.70;99.90;;;;;;4966935;28;20344;-65
2023/09/04 06:41:58;;;;;;;23.88;17.70;;;15.80;99.90;;;;;;4969133;28;20194;-66
2023/09/04 06:44:29;;;;;;;28.17;19.27;;;15.80;99.90;;;;;;4965002;28;20194;-65
2023/09/04 06:46:55;;;;;;;22.55;17.45;;;15.90;99.90;;;;;;4986791;28;20201;-66
2023/09/04 06:49:22;;;;;;;29.35;18.70;;;16.00;99.90;;;;;;4964696;28;20201;-69
2023/09/04 06:51:48;;;;;;;28.90;17.98;;;16.00;99.90;;;;;;4969280;28;20196;-65
2023/09/04 06:54:14;;;;;;;26.77;18.23;;;16.10;99.90;;;;;;4985586;28;20197;-65
2023/09/04 06:56:40;;;;;;;25.08;17.83;;;16.10;99.90;;;;;;4983318;28;20192;-65
2023/09/04 06:59:06;;;;;;;30.92;17.27;;;16.20;99.90;;;;;;4973164;28;20266;-66
2023/09/04 07:01:32;;;;;;;24.17;17.33;;;16.20;99.90;;;;;;4972462;28;20236;-70
2023/09/04 07:03:59;;;;;;;27.55;16.40;;;16.30;99.90;;;;;;4966174;28;20190;-70
2023/09/04 07:06:25;;;;;;;20.45;16.40;;;16.30;99.90;;;;;;4983213;28;20236;-63
2023/09/04 07:08:53;;;;;;;21.55;15.82;;;16.40;99.90;;;;;;4974401;28;20204;-69
2023/09/04 07:11:19;;;;;;;22.75;15.07;;;16.50;99.90;;;;;;4976394;28;20186;-64
2023/09/04 07:13:45;;;;;;;26.63;15.75;;;16.60;99.90;;;;;;4977860;28;20189;-67
2023/09/04 07:16:11;;;;;;;24.50;15.20;;;16.70;99.90;;;;;;4975618;28;20300;-65
2023/09/04 07:18:38;;;;;;;21.90;14.75;;;16.80;99.90;;;;;;4970378;28;20752;-64
2023/09/04 07:21:05;;;;;;;18.08;13.45;;;16.80;99.90;;;;;;4968279;28;20248;-64
2023/09/04 07:23:31;;;;;;;27.45;13.23;;;16.90;99.90;;;;;;4971813;28;20274;-64
2023/09/04 07:25:57;;;;;;;20.10;13.07;;;17.00;99.90;;;;;;4971961;28;20746;-66
2023/09/04 07:28:23;;;;;;;18.27;12.43;;;17.10;99.90;;;;;;4968568;28;20182;-67
2023/09/04 07:30:49;;;;;;;19.35;12.35;;;17.10;99.90;;;;;;4967533;28;20285;-67
2023/09/04 07:33:16;;;;;;;30.92;13.90;;;17.20;99.90;;;;;;4967886;28;20218;-66
2023/09/04 07:35:42;;;;;;;19.45;12.40;;;17.30;99.90;;;;;;4968868;28;20198;-66
2023/09/04 07:38:09;;;;;;;17.88;12.70;;;17.40;99.90;;;;;;4967535;28;20636;-62
2023/09/04 07:40:35;;;;;;;18.23;12.80;;;17.50;99.90;;;;;;4972026;28;20224;-62
2023/09/04 07:43:01;;;;;;;21.90;12.55;;;17.50;99.90;;;;;;4963690;28;20186;-63
2023/09/04 07:45:27;;;;;;;19.50;12.95;;;17.60;99.90;;;;;;4970366;28;20197;-64
2023/09/04 07:47:53;;;;;;;29.33;13.07;;;17.70;99.90;;;;;;4973243;28;20186;-64
2023/09/04 07:50:19;;;;;;;20.85;12.80;;;17.70;99.90;;;;;;4971062;28;20223;-63
2023/09/04 07:52:45;;;;;;;18.00;12.90;;;17.90;99.90;;;;;;4971692;28;20197;-63
2023/09/04 07:55:11;;;;;;;22.42;13.07;;;17.90;99.90;;;;;;4997710;28;20540;-64
2023/09/04 07:57:43;;;;;;;19.20;13.43;;;18.00;99.90;;;;;;4994606;28;20750;-62
2023/09/04 08:00:11;;;;;;;18.45;12.23;;;18.10;99.90;;;;;;5001580;28;20638;-62
2023/09/04 08:02:41;;;;;;;20.40;12.73;;;18.20;99.90;;;;;;4973242;28;20207;-63
2023/09/04 08:05:08;;;;;;;15.50;10.13;;;18.30;99.90;;;;;;5000916;28;20320;-63
2023/09/04 08:07:41;;;;;;;13.90;9.23;;;18.30;99.90;;;;;;4965249;28;20174;-64
2023/09/04 08:10:08;;;;;;;17.08;9.63;;;18.40;99.90;;;;;;4974860;28;20726;-64
2023/09/04 08:12:34;;;;;;;12.80;8.95;;;18.50;99.90;;;;;;4974323;28;20197;-64
2023/09/04 08:15:00;;;;;;;14.63;9.20;;;18.60;99.90;;;;;;4966320;28;20669;-64
2023/09/04 08:17:26;;;;;;;12.65;9.02;;;18.70;99.90;;;;;;4953392;28;20214;-68
2023/09/04 08:19:52;;;;;;;15.85;9.57;;;18.70;99.90;;;;;;4969679;28;20229;-65
2023/09/04 08:22:18;;;;;;;12.52;8.93;;;18.80;99.90;;;;;;4969575;28;20236;-69
2023/09/04 08:24:43;;;;;;;15.45;8.52;;;18.90;99.90;;;;;;4967625;28;20201;-65
2023/09/04 08:27:09;;;;;;;15.13;8.10;;;19.00;99.90;;;;;;4975073;28;20558;-65
2023/09/04 08:29:35;;;;;;;15.63;8.00;;;19.10;99.90;;;;;;4956500;28;20198;-65
2023/09/04 08:32:01;;;;;;;13.85;7.88;;;19.10;99.90;;;;;;5004178;28;20190;-64
2023/09/04 08:34:27;;;;;;;13.70;7.70;;;19.20;99.90;;;;;;4969218;28;20228;-66
2023/09/04 08:36:53;;;;;;;10.32;7.90;;;19.30;99.90;;;;;;4984403;28;20183;-67
2023/09/04 08:39:19;;;;;;;12.73;7.93;;;19.40;99.90;;;;;;4965887;28;20650;-66
2023/09/04 08:41:45;;;;;;;10.18;7.03;;;19.40;99.90;;;;;;4970876;28;20186;-65
2023/09/04 08:44:11;;;;;;;9.57;6.55;;;19.50;99.90;;;;;;5000066;28;20206;-64
2023/09/04 08:46:40;;;;;;;13.50;6.40;;;19.60;99.90;;;;;;4974684;28;20201;-65
2023/09/04 08:49:07;;;;;;;9.55;5.80;;;19.60;99.90;;;;;;4967448;28;20181;-64
2023/09/04 08:51:34;;;;;;;8.40;5.93;;;19.70;99.90;;;;;;4996074;28;20193;-63
2023/09/04 08:54:00;;;;;;;9.07;6.47;;;19.70;99.90;;;;;;4967967;28;20182;-65
2023/09/04 08:56:26;;;;;;;10.07;5.70;;;19.80;99.90;;;;;;4974687;28;20189;-64
2023/09/04 08:58:52;;;;;;;9.20;5.28;;;19.90;99.90;;;;;;5000238;28;20222;-65
2023/09/04 09:01:20;;;;;;;7.20;5.13;;;19.90;99.90;;;;;;4973437;28;20193;-66
2023/09/04 09:03:46;;;;;;;8.57;5.88;;;20.00;99.90;;;;;;4967106;28;20198;-64
2023/09/04 09:06:12;;;;;;;10.23;5.00;;;20.10;99.90;;;;;;4967305;28;20241;-62
2023/09/04 09:08:41;;;;;;;9.27;5.32;;;20.20;99.90;;;;;;4967726;28;20197;-64
2023/09/04 09:11:07;;;;;;;6.00;4.70;;;20.20;99.90;;;;;;4971095;28;20198;-62
2023/09/04 09:13:33;;;;;;;6.82;4.50;;;20.30;99.90;;;;;;4969381;28;20271;-64
2023/09/04 09:15:59;;;;;;;8.05;5.47;;;20.40;99.90;;;;;;4970666;28;20186;-67
2023/09/04 09:18:36;;;;;;;10.95;6.60;;;20.40;99.90;;;;;;4981288;28;20314;-62
2023/09/04 09:21:19;;;;;;;10.18;5.68;;;20.40;99.90;;;;;;4973418;28;20670;-64
2023/09/04 09:23:45;;;;;;;8.88;5.18;;;20.50;99.90;;;;;;4967363;28;20217;-64
2023/09/04 09:26:11;;;;;;;11.25;6.53;;;20.60;99.90;;;;;;4964458;28;20611;-68
2023/09/04 09:28:37;;;;;;;8.60;4.68;;;20.60;99.90;;;;;;4966475;28;20778;-64
2023/09/04 09:31:03;;;;;;;7.75;4.03;;;20.70;99.90;;;;;;4967933;28;20657;-63
2023/09/04 09:33:30;;;;;;;8.23;4.05;;;20.70;99.90;;;;;;4966335;28;20221;-63
2023/09/04 09:35:56;;;;;;;9.15;3.10;;;20.80;99.90;;;;;;4971905;28;20651;-64
2023/09/04 09:38:22;;;;;;;5.82;3.50;;;20.80;99.90;;;;;;4967618;28;20213;-63
2023/09/04 09:40:50;;;;;;;8.45;3.80;;;20.90;99.90;;;;;;4967850;28;20182;-65
2023/09/04 09:43:16;;;;;;;9.68;5.53;;;20.90;99.90;;;;;;4967347;28;20178;-64
2023/09/04 09:45:47;;;;;;;7.10;4.47;;;21.00;99.90;;;;;;4969123;28;20185;-63
2023/09/04 09:48:13;;;;;;;6.80;3.72;;;21.00;99.90;;;;;;4968541;28;20186;-64
2023/09/04 09:50:40;;;;;;;5.47;3.50;;;21.10;99.90;;;;;;4968082;28;20289;-67
2023/09/04 09:53:06;;;;;;;4.93;3.00;;;21.10;99.90;;;;;;4965768;28;20220;-64
2023/09/04 09:55:35;;;;;;;7.22;3.50;;;21.20;99.90;;;;;;4971424;28;20194;-64
2023/09/04 09:58:03;;;;;;;6.00;4.05;;;21.20;99.90;;;;;;4969134;28;20230;-66
2023/09/04 10:00:35;;;;;;;6.88;4.60;;;21.30;99.90;;;;;;4965962;28;20197;-63
2023/09/04 10:03:01;;;;;;;6.15;4.07;;;21.30;99.90;;;;;;4966631;28;20225;-65
2023/09/04 10:05:30;;;;;;;8.15;4.68;;;21.40;99.90;;;;;;4970092;28;20276;-63
2023/09/04 10:08:01;;;;;;;6.07;4.65;;;21.40;99.90;;;;;;4967995;28;20190;-69
2023/09/04 10:10:30;;;;;;;6.30;4.75;;;21.50;99.90;;;;;;5001770;28;20198;-63
2023/09/04 10:13:04;;;;;;;7.25;5.40;;;21.50;99.90;;;;;;4967516;28;20705;-63
2023/09/04 10:15:34;;;;;;;10.15;5.93;;;21.60;99.90;;;;;;4967986;28;20190;-62
2023/09/04 10:18:09;;;;;;;8.35;4.78;;;21.60;99.90;;;;;;4966576;28;20241;-64
2023/09/04 10:20:36;;;;;;;6.68;5.22;;;21.70;99.90;;;;;;4982628;28;20201;-63
2023/09/04 10:23:12;;;;;;;6.40;3.72;;;21.70;99.90;;;;;;4966789;28;20733;-64
2023/09/04 10:25:52;;;;;;;4.53;3.33;;;21.70;99.90;;;;;;4969457;28;20596;-64
2023/09/04 10:28:27;;;;;;;9.13;4.18;;;21.80;99.90;;;;;;4968288;28;20197;-63
2023/09/04 10:30:57;;;;;;;5.85;4.50;;;21.80;99.90;;;;;;4968979;28;20212;-64
2023/09/04 10:33:23;;;;;;;6.63;4.40;;;21.90;99.90;;;;;;4947274;28;21413;-63
2023/09/04 10:35:50;;;;;;;7.85;5.18;;;22.00;99.90;;;;;;4966720;28;20186;-63
2023/09/04 10:38:16;;;;;;;7.35;3.72;;;22.00;99.90;;;;;;4965636;28;20214;-63
2023/09/04 10:40:42;;;;;;;4.70;3.53;;;22.00;99.90;;;;;;4970684;28;20256;-66
2023/09/04 10:43:11;;;;;;;6.97;4.00;;;22.10;99.90;;;;;;4967017;28;20194;-64
2023/09/04 10:45:38;;;;;;;7.30;3.65;;;22.10;99.90;;;;;;4971154;28;20684;-63
2023/09/04 10:48:06;;;;;;;8.00;3.60;;;22.10;99.90;;;;;;4967830;28;20186;-62
2023/09/04 10:50:38;;;;;;;9.18;4.00;;;22.20;99.90;;;;;;4967128;28;20193;-62
2023/09/04 10:53:06;;;;;;;5.68;3.67;;;22.20;99.90;;;;;;4966521;28;20213;-66
2023/09/04 10:55:38;;;;;;;9.52;4.40;;;22.30;99.90;;;;;;4967465;28;20244;-65
2023/09/04 10:58:08;;;;;;;5.35;3.78;;;22.30;99.90;;;;;;4979632;28;20225;-63
2023/09/04 11:00:35;;;;;;;7.00;3.90;;;22.40;99.90;;;;;;4970507;28;20193;-63
2023/09/04 11:03:14;;;;;;;9.00;5.68;;;22.50;99.90;;;;;;4968226;28;20201;-62
2023/09/04 11:06:05;;;;;;;5.82;3.08;;;22.50;99.90;;;;;;4971814;28;20255;-62
2023/09/04 11:08:33;;;;;;;7.82;3.88;;;22.60;99.90;;;;;;4964912;28;20182;-66
2023/09/04 11:11:04;;;;;;;11.30;4.00;;;22.70;99.90;;;;;;4965672;28;20190;-66
2023/09/04 11:13:34;;;;;;;6.78;4.10;;;22.70;99.90;;;;;;4967400;28;20200;-63
2023/09/04 11:16:03;;;;;;;5.68;3.58;;;22.80;99.90;;;;;;4970865;28;20566;-63
2023/09/04 11:18:37;;;;;;;6.32;3.47;;;22.80;99.90;;;;;;4970828;28;20532;-64
2023/09/04 11:21:03;;;;;;;7.40;3.20;;;22.80;99.90;;;;;;4994975;28;20309;-62
2023/09/04 11:23:34;;;;;;;7.22;3.40;;;22.90;99.90;;;;;;4968423;28;20187;-63
2023/09/04 11:26:03;;;;;;;9.27;3.97;;;22.90;99.90;;;;;;4968532;28;20658;-68
2023/09/04 11:28:29;;;;;;;5.63;3.30;;;23.00;99.90;;;;;;4971581;28;20726;-62
2023/09/04 11:30:59;;;;;;;8.23;3.53;;;23.00;99.90;;;;;;4972218;28;20281;-62
2023/09/04 11:33:33;;;;;;;3.92;3.30;;;23.00;99.90;;;;;;4969662;28;20190;-63
2023/09/04 11:36:06;;;;;;;7.45;3.92;;;23.10;99.90;;;;;;4971778;28;20642;-64
2023/09/04 11:38:38;;;;;;;7.78;3.60;;;23.10;99.90;;;;;;4971658;28;20237;-64
2023/09/04 11:41:17;;;;;;;6.43;2.90;;;23.20;99.90;;;;;;4968755;28;20269;-63
2023/09/04 11:43:43;;;;;;;3.80;2.72;;;23.20;99.90;;;;;;4965651;28;20281;-64
2023/09/04 11:46:11;;;;;;;4.75;3.88;;;23.30;99.90;;;;;;4974784;28;20264;-64
2023/09/04 11:48:40;;;;;;;5.47;4.43;;;23.30;99.90;;;;;;4970547;28;20198;-64
2023/09/04 11:51:09;;;;;;;5.53;3.10;;;23.40;99.90;;;;;;4968163;28;20218;-64
2023/09/04 11:53:35;;;;;;;6.53;3.20;;;23.40;99.90;;;;;;4969557;28;20195;-63
2023/09/04 11:56:03;;;;;;;5.25;3.05;;;23.40;99.90;;;;;;4975027;28;20190;-63
2023/09/04 11:58:29;;;;;;;4.90;2.70;;;23.50;99.90;;;;;;4969398;28;20226;-64
2023/09/04 12:00:59;;;;;;;4.80;2.58;;;23.60;99.90;;;;;;4970150;28;20194;-66
2023/09/04 12:03:25;;;;;;;6.63;4.05;;;23.60;99.90;;;;;;4967756;28;20187;-64
2023/09/04 12:05:51;;;;;;;4.70;2.80;;;23.60;99.90;;;;;;4990023;28;20241;-63
2023/09/04 12:08:19;;;;;;;6.93;2.92;;;23.60;99.90;;;;;;4969150;28;20225;-64
2023/09/04 12:10:45;;;;;;;4.80;3.45;;;23.60;99.90;;;;;;4972254;28;20611;-63
2023/09/04 12:13:12;;;;;;;5.65;4.30;;;23.60;99.90;;;;;;4951127;28;20282;-63
2023/09/04 12:15:38;;;;;;;7.20;3.45;;;23.70;99.90;;;;;;4972713;28;20572;-64
2023/09/04 12:18:05;;;;;;;5.53;3.78;;;23.70;99.90;;;;;;4971379;28;20245;-64
2023/09/04 12:20:41;;;;;;;9.52;7.15;;;23.70;99.90;;;;;;4973372;28;20202;-64
2023/09/04 12:23:08;;;;;;;6.03;3.10;;;23.80;99.90;;;;;;4968721;28;20276;-64
2023/09/04 12:25:42;;;;;;;7.90;5.30;;;23.80;99.90;;;;;;4970272;28;20202;-64
2023/09/04 12:28:10;;;;;;;9.80;3.03;;;23.90;99.90;;;;;;4971757;28;20621;-63
2023/09/04 12:30:37;;;;;;;4.72;3.05;;;23.90;99.90;;;;;;4969684;28;20281;-73
2023/09/04 12:33:06;;;;;;;6.50;3.90;;;23.90;99.90;;;;;;4968777;28;20507;-64